createdAt,value
2019-02-08T00:01:36.153Z,2.43
2019-02-08T00:04:05.875Z,1.60
2019-02-08T00:06:35.163Z,2.10
2019-02-08T00:09:07.683Z,1.83
2019-02-08T00:11:37.037Z,2.83
2019-02-08T00:14:06.921Z,1.90
2019-02-08T00:16:36.301Z,1.47
2019-02-08T00:19:05.753Z,1.80
2019-02-08T00:21:35.076Z,1.70
2019-02-08T00:24:04.816Z,1.80
2019-02-08T00:26:34.104Z,1.60
2019-02-08T00:29:03.485Z,1.37
2019-02-08T00:31:32.821Z,1.70
2019-02-08T00:34:02.247Z,1.67
2019-02-08T00:36:31.917Z,1.90
2019-02-08T00:39:01.584Z,1.20
2019-02-08T00:41:30.956Z,1.57
2019-02-08T00:44:00.693Z,1.20
2019-02-08T00:46:30.013Z,1.60
2019-02-08T00:48:59.392Z,1.90
2019-02-08T00:51:29.084Z,2.93
2019-02-08T00:53:58.700Z,1.73
2019-02-08T00:56:27.973Z,2.33
2019-02-08T00:58:57.259Z,2.23
2019-02-08T01:01:27.046Z,2.17
2019-02-08T01:03:56.485Z,2.20
2019-02-08T01:06:25.771Z,2.50
2019-02-08T01:08:55.181Z,2.07
2019-02-08T01:11:24.528Z,2.93
2019-02-08T01:13:53.976Z,2.03
2019-02-08T01:16:23.249Z,2.43
2019-02-08T01:18:52.528Z,1.93
2019-02-08T01:21:21.859Z,2.07
2019-02-08T01:23:51.559Z,1.83
2019-02-08T01:26:20.856Z,1.93
2019-02-08T01:28:50.180Z,2.00
2019-02-08T01:31:19.480Z,2.73
2019-02-08T01:33:48.767Z,1.90
2019-02-08T01:36:18.136Z,1.93
2019-02-08T01:38:47.407Z,2.17
2019-02-08T01:41:16.681Z,1.90
2019-02-08T01:43:46.070Z,2.30
2019-02-08T01:46:15.389Z,2.17
2019-02-08T01:48:45.022Z,2.90
2019-02-08T01:51:14.313Z,2.70
2019-02-08T01:53:48.489Z,3.60
2019-02-08T01:56:14.664Z,2.53
2019-02-08T01:58:43.949Z,3.20
2019-02-08T02:01:13.270Z,4.17
2019-02-08T02:03:42.656Z,3.70
2019-02-08T02:06:11.956Z,4.37
2019-02-08T02:08:41.319Z,5.10
2019-02-08T02:11:10.609Z,4.97
2019-02-08T02:13:40.010Z,4.33
2019-02-08T02:16:09.294Z,3.50
2019-02-08T02:18:38.634Z,3.60
2019-02-08T02:21:07.852Z,4.67
2019-02-08T02:23:37.148Z,4.63
2019-02-08T02:26:06.762Z,4.60
2019-02-08T02:28:36.056Z,4.10
2019-02-08T02:31:05.468Z,4.17
2019-02-08T02:33:34.774Z,4.30
2019-02-08T02:36:04.554Z,3.73
2019-02-08T02:38:33.716Z,3.60
2019-02-08T02:41:03.118Z,4.47
2019-02-08T02:43:32.616Z,4.20
2019-02-08T02:46:02.012Z,4.63
2019-02-08T02:48:31.326Z,4.50
2019-02-08T02:51:00.595Z,5.33
2019-02-08T02:53:29.897Z,3.90
2019-02-08T02:55:59.247Z,4.73
2019-02-08T02:58:28.552Z,4.20
2019-02-08T03:00:58.025Z,4.70
2019-02-08T03:03:27.337Z,3.80
2019-02-08T03:05:56.626Z,4.07
2019-02-08T03:08:27.097Z,3.50
2019-02-08T03:10:56.405Z,4.20
2019-02-08T03:13:25.729Z,4.70
2019-02-08T03:15:55.075Z,4.63
2019-02-08T03:18:24.497Z,4.43
2019-02-08T03:20:53.748Z,7.00
2019-02-08T03:23:23.050Z,3.73
2019-02-08T03:25:52.424Z,4.43
2019-02-08T03:28:21.840Z,4.10
2019-02-08T03:30:56.524Z,3.60
2019-02-08T03:33:25.817Z,4.50
2019-02-08T03:35:55.127Z,5.17
2019-02-08T03:38:24.457Z,4.53
2019-02-08T03:40:53.770Z,3.60
2019-02-08T03:43:23.085Z,3.93
2019-02-08T03:45:53.868Z,4.17
2019-02-08T03:48:23.157Z,5.73
2019-02-08T03:50:52.460Z,3.40
2019-02-08T03:53:21.729Z,4.50
2019-02-08T03:55:58.110Z,4.30
2019-02-08T03:58:22.401Z,4.37
2019-02-08T04:00:56.524Z,4.13
2019-02-08T04:03:26.127Z,3.70
2019-02-08T04:05:55.629Z,3.70
2019-02-08T04:08:24.928Z,3.53
2019-02-08T04:10:54.260Z,4.57
2019-02-08T04:13:23.543Z,3.07
2019-02-08T04:15:52.834Z,3.53
2019-02-08T04:18:22.207Z,4.00
2019-02-08T04:20:51.528Z,3.73
2019-02-08T04:23:20.907Z,4.23
2019-02-08T04:25:50.270Z,4.13
2019-02-08T04:28:19.583Z,3.87
2019-02-08T04:30:48.874Z,4.63
2019-02-08T04:33:18.185Z,2.97
2019-02-08T04:35:47.570Z,3.07
2019-02-08T04:38:18.463Z,3.60
2019-02-08T04:40:48.046Z,3.80
2019-02-08T04:43:17.343Z,3.30
2019-02-08T04:45:46.725Z,3.90
2019-02-08T04:48:16.022Z,3.70
2019-02-08T04:50:45.283Z,3.10
2019-02-08T04:53:14.621Z,3.67
2019-02-08T04:55:43.892Z,4.77
2019-02-08T04:58:13.215Z,3.50
2019-02-08T05:00:42.611Z,4.90
2019-02-08T05:03:11.807Z,3.70
2019-02-08T05:05:41.299Z,3.80
2019-02-08T05:08:10.804Z,3.30
2019-02-08T05:10:40.251Z,4.40
2019-02-08T05:13:09.554Z,5.03
2019-02-08T05:15:38.843Z,3.80
2019-02-08T05:18:08.120Z,3.60
2019-02-08T05:20:37.525Z,3.37
2019-02-08T05:23:06.799Z,2.90
2019-02-08T05:25:36.124Z,3.10
2019-02-08T05:28:05.955Z,4.13
2019-02-08T05:30:35.969Z,2.87
2019-02-08T05:33:06.504Z,3.30
2019-02-08T05:35:36.047Z,3.50
2019-02-08T05:38:05.749Z,3.30
2019-02-08T05:40:35.058Z,4.23
2019-02-08T05:43:05.066Z,4.50
2019-02-08T05:45:34.391Z,3.10
2019-02-08T05:48:04.235Z,2.57
2019-02-08T05:50:33.656Z,3.70
2019-02-08T05:53:02.949Z,3.70
2019-02-08T05:55:32.764Z,3.83
2019-02-08T05:58:02.280Z,6.20
2019-02-08T06:00:38.106Z,3.67
2019-02-08T06:03:08.190Z,3.10
2019-02-08T06:05:38.705Z,3.07
2019-02-08T06:08:08.610Z,2.77
2019-02-08T06:10:37.972Z,3.80
2019-02-08T06:13:08.554Z,2.17
2019-02-08T06:15:38.029Z,4.23
2019-02-08T06:18:08.401Z,2.50
2019-02-08T06:20:38.018Z,3.27
2019-02-08T06:23:07.923Z,2.87
2019-02-08T06:25:37.669Z,3.20
2019-02-08T06:28:07.729Z,2.53
2019-02-08T06:30:37.144Z,2.57
2019-02-08T06:33:07.724Z,2.90
2019-02-08T06:35:37.043Z,3.03
2019-02-08T06:38:07.480Z,3.00
2019-02-08T06:40:39.212Z,2.83
2019-02-08T06:43:08.513Z,2.57
2019-02-08T06:45:37.997Z,2.87
2019-02-08T06:48:08.307Z,2.60
2019-02-08T06:50:37.917Z,2.50
2019-02-08T06:53:07.231Z,2.90
2019-02-08T06:55:36.648Z,2.67
2019-02-08T06:58:17.940Z,2.77
2019-02-08T07:00:56.042Z,2.33
2019-02-08T07:03:47.367Z,3.37
2019-02-08T07:06:34.521Z,2.83
2019-02-08T07:09:36.385Z,2.10
2019-02-08T07:12:24.260Z,2.40
2019-02-08T07:15:27.973Z,2.60
2019-02-08T07:18:13.854Z,2.20
2019-02-08T07:21:02.077Z,2.27
2019-02-08T07:23:41.109Z,2.80
2019-02-08T07:26:28.016Z,1.50
2019-02-08T07:29:25.656Z,1.80
2019-02-08T07:32:13.012Z,1.90
2019-02-08T07:34:50.906Z,2.53
2019-02-08T07:37:38.723Z,2.17
2019-02-08T07:40:24.435Z,1.77
2019-02-08T07:43:12.031Z,1.50
2019-02-08T07:45:50.856Z,1.60
2019-02-08T07:48:39.265Z,1.80
2019-02-08T07:51:27.482Z,1.67
2019-02-08T07:54:12.116Z,1.70
2019-02-08T07:57:03.120Z,1.43
2019-02-08T07:59:55.276Z,1.33
2019-02-08T08:02:44.050Z,1.90
2019-02-08T08:05:31.469Z,1.47
2019-02-08T08:08:25.829Z,1.70
2019-02-08T08:11:23.419Z,1.50
2019-02-08T08:14:04.677Z,7.47
2019-02-08T08:16:52.266Z,14.63
2019-02-08T08:19:45.324Z,2.40
2019-02-08T08:22:26.352Z,2.50
2019-02-08T08:25:17.442Z,2.63
2019-02-08T08:28:11.744Z,1.40
2019-02-08T08:31:03.560Z,1.10
2019-02-08T08:33:46.634Z,1.20
2019-02-08T08:36:37.496Z,1.37
2019-02-08T08:39:59.282Z,1.30
2019-02-08T08:43:01.736Z,1.10
2019-02-08T08:46:18.308Z,1.00
2019-02-08T08:49:22.915Z,1.07
2019-02-08T08:52:20.145Z,1.30
2019-02-08T08:55:25.619Z,1.50
2019-02-08T08:58:33.922Z,1.20
2019-02-08T09:01:39.397Z,0.90
2019-02-08T09:04:26.302Z,1.17
2019-02-08T09:07:33.021Z,1.13
2019-02-08T09:10:45.331Z,1.10
2019-02-08T09:13:36.820Z,1.40
2019-02-08T09:16:35.537Z,0.60
2019-02-08T09:20:10.116Z,1.00
2019-02-08T09:23:20.386Z,0.97
2019-02-08T09:26:44.787Z,0.50
2019-02-08T09:30:10.586Z,1.03
2019-02-08T09:33:18.676Z,0.70
2019-02-08T09:36:26.576Z,1.07
2019-02-08T09:39:35.934Z,0.63
2019-02-08T09:42:52.357Z,0.80
2019-02-08T09:45:50.172Z,0.60
2019-02-08T09:48:54.160Z,1.10
2019-02-08T09:51:50.474Z,0.80
2019-02-08T09:54:57.055Z,0.60
2019-02-08T09:58:02.216Z,1.00
2019-02-08T10:01:27.791Z,0.73
2019-02-08T10:04:50.211Z,0.80
2019-02-08T10:08:03.527Z,0.90
2019-02-08T10:11:09.929Z,0.60
2019-02-08T10:14:09.002Z,0.50
2019-02-08T10:17:24.296Z,0.40
2019-02-08T10:20:25.807Z,0.67
2019-02-08T10:23:41.993Z,0.50
2019-02-08T10:27:04.600Z,0.60
2019-02-08T10:30:17.819Z,0.50
2019-02-08T10:33:14.627Z,0.63
2019-02-08T10:36:13.944Z,0.60
2019-02-08T10:39:32.350Z,0.70
2019-02-08T10:42:57.687Z,0.70
2019-02-08T10:46:16.007Z,0.50
2019-02-08T10:49:20.820Z,0.63
2019-02-08T10:52:42.152Z,1.00
2019-02-08T10:56:03.583Z,0.57
2019-02-08T10:59:12.811Z,0.40
2019-02-08T11:02:36.840Z,0.80
2019-02-08T11:05:40.808Z,0.60
2019-02-08T11:08:56.148Z,0.60
2019-02-08T11:12:08.464Z,0.63
2019-02-08T11:15:21.381Z,0.50
2019-02-08T11:18:34.139Z,0.80
2019-02-08T11:21:03.645Z,0.50
2019-02-08T11:23:33.076Z,1.60
2019-02-08T11:26:02.786Z,10.90
2019-02-08T11:28:32.085Z,0.80
2019-02-08T11:31:01.383Z,0.80
2019-02-08T11:33:30.666Z,0.87
2019-02-08T11:35:59.907Z,0.70
2019-02-08T11:38:29.203Z,0.70
2019-02-08T11:40:58.495Z,0.87
2019-02-08T11:43:27.771Z,0.63
2019-02-08T11:45:57.067Z,0.70
2019-02-08T11:48:28.163Z,1.10
2019-02-08T11:50:57.812Z,0.60
2019-02-08T11:53:27.407Z,1.10
2019-02-08T11:55:56.793Z,1.10
2019-02-08T11:58:26.101Z,0.80
2019-02-08T12:00:57.092Z,1.07
2019-02-08T12:03:26.453Z,0.80
2019-02-08T12:05:55.750Z,0.90
2019-02-08T12:08:25.134Z,0.70
2019-02-08T12:10:54.459Z,0.90
2019-02-08T12:13:23.719Z,0.70
2019-02-08T12:15:53.023Z,1.10
2019-02-08T12:18:22.326Z,0.93
2019-02-08T12:20:51.642Z,0.60
2019-02-08T12:23:20.980Z,0.97
2019-02-08T12:25:50.594Z,1.47
2019-02-08T12:28:19.941Z,0.90
2019-02-08T12:30:49.440Z,1.47
2019-02-08T12:33:18.735Z,1.20
2019-02-08T12:35:48.105Z,0.93
2019-02-08T12:38:17.413Z,0.93
2019-02-08T12:40:47.093Z,1.00
2019-02-08T12:43:16.697Z,1.13
2019-02-08T12:45:46.036Z,1.37
2019-02-08T12:48:15.330Z,1.50
2019-02-08T12:50:44.861Z,1.00
2019-02-08T12:53:14.143Z,1.73
2019-02-08T12:55:43.489Z,1.13
2019-02-08T12:58:13.212Z,1.47
2019-02-08T13:00:42.506Z,1.07
2019-02-08T13:03:11.807Z,2.13
2019-02-08T13:05:41.192Z,1.30
2019-02-08T13:08:10.517Z,1.37
2019-02-08T13:10:39.921Z,0.83
2019-02-08T13:13:09.248Z,1.07
2019-02-08T13:15:38.563Z,2.10
2019-02-08T13:18:07.836Z,1.77
2019-02-08T13:20:37.138Z,1.50
2019-02-08T13:23:06.407Z,1.60
2019-02-08T13:25:35.725Z,2.07
2019-02-08T13:28:05.032Z,2.40
2019-02-08T13:30:34.466Z,1.80
2019-02-08T13:33:04.319Z,1.60
2019-02-08T13:35:33.597Z,0.97
2019-02-08T13:38:02.851Z,2.33
2019-02-08T13:40:32.326Z,1.57
2019-02-08T13:43:01.946Z,1.70
2019-02-08T13:45:31.757Z,1.67
2019-02-08T13:48:01.050Z,1.20
2019-02-08T13:50:30.477Z,1.50
2019-02-08T13:52:59.952Z,1.73
2019-02-08T13:55:29.456Z,2.50
2019-02-08T13:57:58.743Z,1.50
2019-02-08T14:00:30.736Z,2.03
2019-02-08T14:03:00.205Z,1.43
2019-02-08T14:05:29.500Z,1.70
2019-02-08T14:07:58.853Z,1.20
2019-02-08T14:10:28.188Z,1.77
2019-02-08T14:12:57.539Z,1.30
2019-02-08T14:15:27.119Z,1.30
2019-02-08T14:17:56.420Z,1.40
2019-02-08T14:20:25.775Z,1.10
2019-02-08T14:22:56.053Z,1.50
2019-02-08T14:25:25.817Z,1.50
2019-02-08T14:27:55.117Z,1.00
2019-02-08T14:30:35.757Z,1.60
2019-02-08T14:33:05.650Z,1.23
2019-02-08T14:35:35.209Z,1.30
2019-02-08T14:38:06.974Z,2.17
2019-02-08T14:40:36.653Z,1.10
2019-02-08T14:43:06.012Z,2.07
2019-02-08T14:45:35.366Z,1.37
2019-02-08T14:48:04.877Z,2.00
2019-02-08T14:50:34.149Z,1.93
2019-02-08T14:53:03.435Z,1.97
2019-02-08T14:55:33.309Z,1.20
2019-02-08T14:58:02.661Z,1.40
2019-02-08T15:00:31.979Z,2.23
2019-02-08T15:03:01.305Z,1.40
2019-02-08T15:05:30.696Z,2.23
2019-02-08T15:08:00.012Z,1.50
2019-02-08T15:10:35.205Z,1.33
2019-02-08T15:13:04.875Z,1.30
2019-02-08T15:15:34.205Z,1.20
2019-02-08T15:18:03.511Z,2.20
2019-02-08T15:20:33.369Z,1.43
2019-02-08T15:23:02.639Z,1.37
2019-02-08T15:25:32.373Z,2.10
2019-02-08T15:28:01.981Z,1.90
2019-02-08T15:30:32.796Z,1.50
2019-02-08T15:33:02.192Z,2.90
2019-02-08T15:35:32.279Z,1.23
2019-02-08T15:38:01.620Z,1.23
2019-02-08T15:40:37.052Z,1.40
2019-02-08T15:43:06.637Z,1.40
2019-02-08T15:45:36.451Z,1.83
2019-02-08T15:48:05.888Z,1.70
2019-02-08T15:50:35.280Z,1.80
2019-02-08T15:53:04.748Z,1.80
2019-02-08T15:55:35.687Z,1.70
2019-02-08T15:58:05.494Z,5.67
2019-02-08T16:00:34.869Z,2.27
2019-02-08T16:03:04.229Z,1.33
2019-02-08T16:05:33.626Z,1.70
2019-02-08T16:08:03.016Z,1.03
2019-02-08T16:10:32.305Z,1.73
2019-02-08T16:13:01.985Z,1.27
2019-02-08T16:15:31.760Z,1.47
2019-02-08T16:18:01.178Z,1.40
2019-02-08T16:20:30.579Z,1.37
2019-02-08T16:23:00.232Z,1.70
2019-02-08T16:25:30.273Z,1.50
2019-02-08T16:27:59.992Z,2.10
2019-02-08T16:30:30.380Z,3.20
2019-02-08T16:32:59.938Z,1.17
2019-02-08T16:35:29.668Z,1.00
2019-02-08T16:37:59.084Z,1.40
2019-02-08T16:40:29.172Z,1.87
2019-02-08T16:42:59.087Z,1.93
2019-02-08T16:45:30.685Z,1.70
2019-02-08T16:48:01.791Z,1.80
2019-02-08T16:50:32.135Z,1.20
2019-02-08T16:53:01.800Z,1.20
2019-02-08T16:55:31.229Z,1.67
2019-02-08T16:58:00.608Z,1.10
2019-02-08T17:00:31.899Z,1.40
2019-02-08T17:03:04.759Z,1.30
2019-02-08T17:05:34.045Z,1.80
2019-02-08T17:08:05.106Z,1.63
2019-02-08T17:10:34.413Z,1.30
2019-02-08T17:13:04.050Z,1.10
2019-02-08T17:15:34.298Z,1.77
2019-02-08T17:18:04.098Z,1.30
2019-02-08T17:20:35.853Z,1.30
2019-02-08T17:23:05.452Z,0.90
2019-02-08T17:25:34.755Z,3.93
2019-02-08T17:28:04.964Z,2.47
2019-02-08T17:30:34.264Z,1.93
2019-02-08T17:33:03.651Z,3.37
2019-02-08T17:35:32.866Z,1.40
2019-02-08T17:38:02.293Z,2.43
2019-02-08T17:40:33.368Z,2.03
2019-02-08T17:43:02.729Z,1.57
2019-02-08T17:45:32.037Z,2.13
2019-02-08T17:48:02.699Z,2.20
2019-02-08T17:50:32.299Z,1.40
2019-02-08T17:53:01.669Z,1.70
2019-02-08T17:55:31.009Z,1.53
2019-02-08T17:58:03.636Z,2.10
2019-02-08T18:00:52.610Z,1.00
2019-02-08T18:03:22.255Z,1.60
2019-02-08T18:05:53.889Z,1.73
2019-02-08T18:08:25.247Z,1.50
2019-02-08T18:10:54.620Z,2.07
2019-02-08T18:13:31.594Z,1.43
2019-02-08T18:16:02.882Z,3.20
2019-02-08T18:18:32.271Z,2.50
2019-02-08T18:21:04.424Z,2.23
2019-02-08T18:23:34.203Z,1.73
2019-02-08T18:26:03.514Z,2.30
2019-02-08T18:28:33.140Z,1.83
2019-02-08T18:31:02.459Z,2.87
2019-02-08T18:33:31.690Z,1.67
2019-02-08T18:36:00.959Z,1.67
2019-02-08T18:38:30.323Z,1.70
2019-02-08T18:41:00.018Z,1.90
2019-02-08T18:43:29.626Z,1.83
2019-02-08T18:45:58.995Z,1.87
2019-02-08T18:48:28.355Z,1.70
2019-02-08T18:50:57.657Z,1.53
2019-02-08T18:53:27.004Z,1.57
2019-02-08T18:55:56.357Z,2.20
2019-02-08T18:58:25.669Z,1.97
2019-02-08T19:00:56.053Z,2.03
2019-02-08T19:03:25.371Z,2.30
2019-02-08T19:05:54.637Z,1.70
2019-02-08T19:08:23.987Z,2.00
2019-02-08T19:10:53.268Z,1.60
2019-02-08T19:13:22.568Z,1.70
2019-02-08T19:15:52.278Z,2.03
2019-02-08T19:18:21.772Z,1.60
2019-02-08T19:20:51.187Z,2.57
2019-02-08T19:23:20.508Z,1.73
2019-02-08T19:25:49.851Z,2.10
2019-02-08T19:28:26.331Z,1.83
2019-02-08T19:30:51.284Z,1.50
2019-02-08T19:33:20.556Z,1.23
2019-02-08T19:35:50.308Z,1.87
2019-02-08T19:38:19.956Z,1.93
2019-02-08T19:40:49.368Z,1.80
2019-02-08T19:43:18.997Z,1.80
2019-02-08T19:45:48.464Z,2.10
2019-02-08T19:48:17.808Z,1.70
2019-02-08T19:50:47.568Z,1.97
2019-02-08T19:53:16.773Z,1.90
2019-02-08T19:55:46.099Z,2.17
2019-02-08T19:58:15.401Z,2.20
2019-02-08T20:00:44.656Z,1.80
2019-02-08T20:03:13.869Z,2.00
2019-02-08T20:05:43.203Z,2.53
2019-02-08T20:08:14.124Z,2.00
2019-02-08T20:10:45.168Z,2.27
2019-02-08T20:13:17.036Z,1.60
2019-02-08T20:15:46.829Z,1.90
2019-02-08T20:18:16.240Z,1.70
2019-02-08T20:20:46.223Z,2.10
2019-02-08T20:23:21.491Z,1.93
2019-02-08T20:25:51.050Z,2.50
2019-02-08T20:28:20.896Z,2.60
2019-02-08T20:30:50.268Z,2.40
2019-02-08T20:33:22.641Z,2.20
2019-02-08T20:35:51.936Z,1.57
2019-02-08T20:38:21.527Z,1.83
2019-02-08T20:40:54.370Z,2.17
2019-02-08T20:43:23.775Z,2.40
2019-02-08T20:45:53.696Z,2.37
2019-02-08T20:48:24.572Z,2.23
2019-02-08T20:50:54.596Z,1.83
2019-02-08T20:53:24.316Z,1.77
2019-02-08T20:55:54.116Z,2.30
2019-02-08T20:58:23.546Z,2.13
2019-02-08T21:00:53.671Z,2.80
2019-02-08T21:03:26.605Z,1.90
2019-02-08T21:05:56.183Z,1.70
2019-02-08T21:08:26.894Z,1.80
2019-02-08T21:10:56.178Z,2.30
2019-02-08T21:13:26.035Z,2.37
2019-02-08T21:15:55.788Z,2.67
2019-02-08T21:18:25.369Z,2.23
2019-02-08T21:20:54.856Z,2.53
2019-02-08T21:23:24.219Z,3.63
2019-02-08T21:25:53.757Z,2.10
2019-02-08T21:28:26.385Z,2.23
2019-02-08T21:30:55.709Z,1.97
2019-02-08T21:33:25.187Z,2.33
2019-02-08T21:35:54.905Z,1.83
2019-02-08T21:38:24.546Z,1.70
2019-02-08T21:40:54.040Z,2.77
2019-02-08T21:43:23.498Z,1.60
2019-02-08T21:45:52.813Z,2.20
2019-02-08T21:48:23.047Z,2.53
2019-02-08T21:50:52.333Z,1.83
2019-02-08T21:53:22.154Z,1.97
2019-02-08T21:55:51.438Z,1.30
2019-02-08T21:58:20.702Z,2.30
2019-02-08T22:00:50.065Z,2.20
2019-02-08T22:03:19.356Z,1.90
2019-02-08T22:05:55.061Z,3.53
2019-02-08T22:08:24.349Z,2.30
2019-02-08T22:10:53.633Z,2.07
2019-02-08T22:13:22.850Z,1.47
2019-02-08T22:15:52.172Z,1.97
2019-02-08T22:18:21.451Z,2.03
2019-02-08T22:20:51.077Z,1.73
2019-02-08T22:23:20.670Z,1.63
2019-02-08T22:25:49.992Z,2.10
2019-02-08T22:28:19.307Z,1.70
2019-02-08T22:30:48.583Z,1.73
2019-02-08T22:33:17.826Z,2.23
2019-02-08T22:35:48.113Z,1.90
2019-02-08T22:38:19.029Z,1.77
2019-02-08T22:40:48.362Z,1.73
2019-02-08T22:43:17.653Z,2.03
2019-02-08T22:45:47.003Z,2.23
2019-02-08T22:48:16.314Z,2.07
2019-02-08T22:50:45.692Z,2.00
2019-02-08T22:53:15.420Z,2.17
2019-02-08T22:55:44.667Z,1.83
2019-02-08T22:58:13.978Z,1.70
2019-02-08T23:01:27.649Z,2.00
2019-02-08T23:04:04.290Z,2.20
2019-02-08T23:06:33.589Z,1.73
2019-02-08T23:09:04.084Z,2.20
2019-02-08T23:11:33.483Z,2.57
2019-02-08T23:14:02.807Z,2.07
2019-02-08T23:16:32.191Z,1.63
2019-02-08T23:19:01.574Z,2.20
2019-02-08T23:21:30.895Z,1.97
2019-02-08T23:24:00.394Z,3.80
2019-02-08T23:26:29.678Z,3.10
2019-02-08T23:28:59.051Z,1.60
2019-02-08T23:31:28.341Z,2.00
2019-02-08T23:33:57.638Z,2.57
2019-02-08T23:36:27.060Z,1.97
2019-02-08T23:38:56.736Z,2.20
2019-02-08T23:41:26.130Z,2.10
2019-02-08T23:43:55.480Z,1.60
2019-02-08T23:46:24.641Z,1.87
2019-02-08T23:48:53.961Z,2.20
2019-02-08T23:51:23.293Z,2.10
2019-02-08T23:53:52.586Z,2.40
2019-02-08T23:56:21.842Z,1.60
2019-02-08T23:58:51.514Z,1.93
